sensor_id;sensor_type;location;lat;lon;timestamp;P1;durP1;ratioP1;P2;durP2;ratioP2
12878;SDS011;20617;49.476;10.986;2024-02-21T00:01:02;12.52;;;4.93;;
12878;SDS011;20617;49.476;10.986;2024-02-21T00:03:06;12.98;;;4.40;;
12878;SDS011;20617;49.476;10.986;2024-02-21T00:05:07;11.38;;;4.30;;
12878;SDS011;20617;49.476;10.986;2024-02-21T00:07:10;10.10;;;4.43;;
12878;SDS011;20617;49.476;10.986;2024-02-21T00:09:11;11.18;;;3.70;;
12878;SDS011;20617;49.476;10.986;2024-02-21T00:11:12;14.68;;;4.18;;
12878;SDS011;20617;49.476;10.986;2024-02-21T00:13:18;10.98;;;3.78;;
12878;SDS011;20617;49.476;10.986;2024-02-21T00:15:19;9.63;;;3.75;;
12878;SDS011;20617;49.476;10.986;2024-02-21T00:17:20;9.35;;;3.22;;
12878;SDS011;20617;49.476;10.986;2024-02-21T00:19:25;11.68;;;3.20;;
12878;SDS011;20617;49.476;10.986;2024-02-21T00:21:26;8.82;;;3.65;;
12878;SDS011;20617;49.476;10.986;2024-02-21T00:23:27;15.07;;;4.22;;
12878;SDS011;20617;49.476;10.986;2024-02-21T00:25:28;9.57;;;3.40;;
12878;SDS011;20617;49.476;10.986;2024-02-21T00:27:28;10.55;;;3.92;;
12878;SDS011;20617;49.476;10.986;2024-02-21T00:29:29;12.23;;;4.18;;
12878;SDS011;20617;49.476;10.986;2024-02-21T00:31:30;10.55;;;4.13;;
12878;SDS011;20617;49.476;10.986;2024-02-21T00:33:30;13.98;;;4.10;;
12878;SDS011;20617;49.476;10.986;2024-02-21T00:37:53;10.23;;;3.60;;
12878;SDS011;20617;49.476;10.986;2024-02-21T00:39:54;9.68;;;3.38;;
12878;SDS011;20617;49.476;10.986;2024-02-21T00:41:55;10.90;;;3.50;;
12878;SDS011;20617;49.476;10.986;2024-02-21T00:43:57;10.15;;;4.00;;
12878;SDS011;20617;49.476;10.986;2024-02-21T00:45:57;8.60;;;3.72;;
12878;SDS011;20617;49.476;10.986;2024-02-21T00:47:58;20.17;;;4.57;;
12878;SDS011;20617;49.476;10.986;2024-02-21T00:49:59;11.07;;;4.40;;
12878;SDS011;20617;49.476;10.986;2024-02-21T00:52:02;11.77;;;4.63;;
12878;SDS011;20617;49.476;10.986;2024-02-21T00:54:06;14.50;;;4.28;;
12878;SDS011;20617;49.476;10.986;2024-02-21T00:56:06;8.38;;;3.60;;
12878;SDS011;20617;49.476;10.986;2024-02-21T00:58:07;12.60;;;4.05;;
12878;SDS011;20617;49.476;10.986;2024-02-21T01:00:10;9.50;;;3.90;;
12878;SDS011;20617;49.476;10.986;2024-02-21T01:02:11;9.65;;;3.55;;
12878;SDS011;20617;49.476;10.986;2024-02-21T01:04:13;12.07;;;3.80;;
12878;SDS011;20617;49.476;10.986;2024-02-21T01:06:15;15.82;;;4.82;;
12878;SDS011;20617;49.476;10.986;2024-02-21T01:08:20;16.90;;;4.03;;
12878;SDS011;20617;49.476;10.986;2024-02-21T01:10:20;11.38;;;3.88;;
12878;SDS011;20617;49.476;10.986;2024-02-21T01:12:21;13.13;;;4.35;;
12878;SDS011;20617;49.476;10.986;2024-02-21T01:14:22;9.57;;;4.03;;
12878;SDS011;20617;49.476;10.986;2024-02-21T01:16:22;8.60;;;3.30;;
12878;SDS011;20617;49.476;10.986;2024-02-21T01:18:24;15.38;;;4.55;;
12878;SDS011;20617;49.476;10.986;2024-02-21T01:20:26;11.30;;;3.92;;
12878;SDS011;20617;49.476;10.986;2024-02-21T01:22:27;13.40;;;4.13;;
12878;SDS011;20617;49.476;10.986;2024-02-21T01:24:30;16.63;;;4.35;;
12878;SDS011;20617;49.476;10.986;2024-02-21T01:26:31;10.30;;;3.47;;
12878;SDS011;20617;49.476;10.986;2024-02-21T01:28:32;8.90;;;3.20;;
12878;SDS011;20617;49.476;10.986;2024-02-21T01:30:32;9.02;;;3.97;;
12878;SDS011;20617;49.476;10.986;2024-02-21T01:32:34;13.18;;;3.90;;
12878;SDS011;20617;49.476;10.986;2024-02-21T01:34:35;8.88;;;3.40;;
12878;SDS011;20617;49.476;10.986;2024-02-21T01:36:36;11.38;;;4.18;;
12878;SDS011;20617;49.476;10.986;2024-02-21T01:38:36;12.48;;;4.50;;
12878;SDS011;20617;49.476;10.986;2024-02-21T01:40:40;10.70;;;3.92;;
12878;SDS011;20617;49.476;10.986;2024-02-21T01:42:40;12.80;;;4.00;;
12878;SDS011;20617;49.476;10.986;2024-02-21T01:44:41;12.23;;;3.63;;
12878;SDS011;20617;49.476;10.986;2024-02-21T01:46:43;9.60;;;3.60;;
12878;SDS011;20617;49.476;10.986;2024-02-21T01:48:44;14.75;;;4.65;;
12878;SDS011;20617;49.476;10.986;2024-02-21T01:50:45;14.10;;;4.50;;
12878;SDS011;20617;49.476;10.986;2024-02-21T01:52:49;11.10;;;4.30;;
12878;SDS011;20617;49.476;10.986;2024-02-21T01:54:50;11.93;;;3.50;;
12878;SDS011;20617;49.476;10.986;2024-02-21T01:56:55;12.93;;;3.80;;
12878;SDS011;20617;49.476;10.986;2024-02-21T02:00:57;14.60;;;4.60;;
12878;SDS011;20617;49.476;10.986;2024-02-21T02:02:58;7.32;;;3.55;;
12878;SDS011;20617;49.476;10.986;2024-02-21T02:04:59;8.73;;;3.75;;
12878;SDS011;20617;49.476;10.986;2024-02-21T02:07:01;10.00;;;3.45;;
12878;SDS011;20617;49.476;10.986;2024-02-21T02:09:06;15.32;;;4.60;;
12878;SDS011;20617;49.476;10.986;2024-02-21T02:11:09;12.10;;;4.47;;
12878;SDS011;20617;49.476;10.986;2024-02-21T02:13:14;10.15;;;4.45;;
12878;SDS011;20617;49.476;10.986;2024-02-21T02:15:15;10.68;;;4.10;;
12878;SDS011;20617;49.476;10.986;2024-02-21T02:17:16;11.32;;;3.85;;
12878;SDS011;20617;49.476;10.986;2024-02-21T02:19:17;11.40;;;3.90;;
12878;SDS011;20617;49.476;10.986;2024-02-21T02:21:22;10.75;;;4.03;;
12878;SDS011;20617;49.476;10.986;2024-02-21T02:23:37;12.55;;;4.40;;
12878;SDS011;20617;49.476;10.986;2024-02-21T02:25:41;10.02;;;3.38;;
12878;SDS011;20617;49.476;10.986;2024-02-21T02:27:45;10.17;;;3.53;;
12878;SDS011;20617;49.476;10.986;2024-02-21T02:29:46;13.73;;;4.03;;
12878;SDS011;20617;49.476;10.986;2024-02-21T02:31:48;9.10;;;3.20;;
12878;SDS011;20617;49.476;10.986;2024-02-21T02:33:49;9.95;;;3.35;;
12878;SDS011;20617;49.476;10.986;2024-02-21T02:35:50;10.50;;;3.78;;
12878;SDS011;20617;49.476;10.986;2024-02-21T02:37:50;11.20;;;4.25;;
12878;SDS011;20617;49.476;10.986;2024-02-21T02:39:54;11.75;;;3.60;;
12878;SDS011;20617;49.476;10.986;2024-02-21T02:41:55;10.55;;;3.65;;
12878;SDS011;20617;49.476;10.986;2024-02-21T02:43:55;14.07;;;4.22;;
12878;SDS011;20617;49.476;10.986;2024-02-21T02:45:56;14.38;;;3.88;;
12878;SDS011;20617;49.476;10.986;2024-02-21T02:47:57;13.23;;;4.32;;
12878;SDS011;20617;49.476;10.986;2024-02-21T02:49:58;12.25;;;3.92;;
12878;SDS011;20617;49.476;10.986;2024-02-21T02:51:58;13.27;;;3.72;;
12878;SDS011;20617;49.476;10.986;2024-02-21T02:53:59;9.55;;;3.40;;
12878;SDS011;20617;49.476;10.986;2024-02-21T02:56:03;11.57;;;3.70;;
12878;SDS011;20617;49.476;10.986;2024-02-21T02:58:04;13.65;;;3.88;;
12878;SDS011;20617;49.476;10.986;2024-02-21T03:00:05;13.10;;;3.95;;
12878;SDS011;20617;49.476;10.986;2024-02-21T03:02:07;9.20;;;3.42;;
12878;SDS011;20617;49.476;10.986;2024-02-21T03:04:08;13.50;;;3.70;;
12878;SDS011;20617;49.476;10.986;2024-02-21T03:06:09;10.85;;;3.83;;
12878;SDS011;20617;49.476;10.986;2024-02-21T03:08:09;12.73;;;3.70;;
12878;SDS011;20617;49.476;10.986;2024-02-21T03:10:10;11.50;;;3.72;;
12878;SDS011;20617;49.476;10.986;2024-02-21T03:12:14;11.48;;;3.70;;
12878;SDS011;20617;49.476;10.986;2024-02-21T03:14:15;15.15;;;4.18;;
12878;SDS011;20617;49.476;10.986;2024-02-21T03:16:16;12.30;;;3.30;;
12878;SDS011;20617;49.476;10.986;2024-02-21T03:18:17;11.32;;;4.22;;
12878;SDS011;20617;49.476;10.986;2024-02-21T03:20:18;12.48;;;3.80;;
12878;SDS011;20617;49.476;10.986;2024-02-21T03:22:19;8.98;;;3.42;;
12878;SDS011;20617;49.476;10.986;2024-02-21T03:24:19;11.10;;;3.70;;
12878;SDS011;20617;49.476;10.986;2024-02-21T03:26:20;15.45;;;3.92;;
12878;SDS011;20617;49.476;10.986;2024-02-21T03:28:24;8.75;;;3.38;;
12878;SDS011;20617;49.476;10.986;2024-02-21T03:30:24;14.57;;;3.97;;
12878;SDS011;20617;49.476;10.986;2024-02-21T03:32:25;13.93;;;4.10;;
12878;SDS011;20617;49.476;10.986;2024-02-21T03:34:26;8.73;;;3.15;;
12878;SDS011;20617;49.476;10.986;2024-02-21T03:36:27;9.82;;;3.40;;
12878;SDS011;20617;49.476;10.986;2024-02-21T03:38:28;10.40;;;3.65;;
12878;SDS011;20617;49.476;10.986;2024-02-21T03:40:29;9.32;;;2.90;;
12878;SDS011;20617;49.476;10.986;2024-02-21T03:42:30;9.73;;;3.83;;
12878;SDS011;20617;49.476;10.986;2024-02-21T03:44:33;11.85;;;3.42;;
12878;SDS011;20617;49.476;10.986;2024-02-21T03:46:35;7.68;;;3.28;;
12878;SDS011;20617;49.476;10.986;2024-02-21T03:48:36;9.48;;;3.67;;
12878;SDS011;20617;49.476;10.986;2024-02-21T03:50:37;11.68;;;3.33;;
12878;SDS011;20617;49.476;10.986;2024-02-21T03:52:37;8.95;;;3.38;;
12878;SDS011;20617;49.476;10.986;2024-02-21T03:54:38;8.80;;;3.17;;
12878;SDS011;20617;49.476;10.986;2024-02-21T03:56:39;11.90;;;3.50;;
12878;SDS011;20617;49.476;10.986;2024-02-21T03:58:40;8.80;;;3.83;;
12878;SDS011;20617;49.476;10.986;2024-02-21T04:00:44;10.60;;;3.50;;
12878;SDS011;20617;49.476;10.986;2024-02-21T04:02:45;10.48;;;3.83;;
12878;SDS011;20617;49.476;10.986;2024-02-21T04:04:48;11.65;;;3.53;;
12878;SDS011;20617;49.476;10.986;2024-02-21T04:06:48;9.80;;;3.50;;
12878;SDS011;20617;49.476;10.986;2024-02-21T04:08:50;11.07;;;3.60;;
12878;SDS011;20617;49.476;10.986;2024-02-21T04:10:50;8.50;;;2.90;;
12878;SDS011;20617;49.476;10.986;2024-02-21T04:12:51;13.05;;;3.70;;
12878;SDS011;20617;49.476;10.986;2024-02-21T04:14:52;9.48;;;3.10;;
12878;SDS011;20617;49.476;10.986;2024-02-21T04:16:55;12.93;;;3.63;;
12878;SDS011;20617;49.476;10.986;2024-02-21T04:18:57;9.60;;;3.58;;
12878;SDS011;20617;49.476;10.986;2024-02-21T04:20:59;8.73;;;4.60;;
12878;SDS011;20617;49.476;10.986;2024-02-21T04:23:00;8.48;;;3.17;;
12878;SDS011;20617;49.476;10.986;2024-02-21T04:25:01;13.13;;;4.35;;
12878;SDS011;20617;49.476;10.986;2024-02-21T04:27:01;9.27;;;3.40;;
12878;SDS011;20617;49.476;10.986;2024-02-21T04:29:02;8.20;;;3.03;;
12878;SDS011;20617;49.476;10.986;2024-02-21T04:31:03;12.18;;;3.88;;
12878;SDS011;20617;49.476;10.986;2024-02-21T04:33:06;10.27;;;3.80;;
12878;SDS011;20617;49.476;10.986;2024-02-21T04:35:07;10.00;;;3.47;;
12878;SDS011;20617;49.476;10.986;2024-02-21T04:37:08;9.77;;;3.03;;
12878;SDS011;20617;49.476;10.986;2024-02-21T04:39:09;9.18;;;2.92;;
12878;SDS011;20617;49.476;10.986;2024-02-21T04:41:10;8.70;;;2.90;;
12878;SDS011;20617;49.476;10.986;2024-02-21T04:43:11;18.25;;;4.82;;
12878;SDS011;20617;49.476;10.986;2024-02-21T04:45:11;12.95;;;3.75;;
12878;SDS011;20617;49.476;10.986;2024-02-21T04:47:12;10.02;;;3.20;;
12878;SDS011;20617;49.476;10.986;2024-02-21T04:49:15;13.88;;;4.63;;
12878;SDS011;20617;49.476;10.986;2024-02-21T04:51:16;11.52;;;4.00;;
12878;SDS011;20617;49.476;10.986;2024-02-21T04:53:17;16.00;;;4.07;;
12878;SDS011;20617;49.476;10.986;2024-02-21T04:55:18;10.77;;;3.40;;
12878;SDS011;20617;49.476;10.986;2024-02-21T04:57:19;9.18;;;3.05;;
12878;SDS011;20617;49.476;10.986;2024-02-21T04:59:19;8.57;;;3.38;;
12878;SDS011;20617;49.476;10.986;2024-02-21T05:01:20;9.48;;;3.45;;
12878;SDS011;20617;49.476;10.986;2024-02-21T05:03:21;13.18;;;3.50;;
12878;SDS011;20617;49.476;10.986;2024-02-21T05:05:24;10.35;;;3.67;;
12878;SDS011;20617;49.476;10.986;2024-02-21T05:07:25;8.93;;;3.80;;
12878;SDS011;20617;49.476;10.986;2024-02-21T05:09:26;14.38;;;4.15;;
12878;SDS011;20617;49.476;10.986;2024-02-21T05:11:26;11.77;;;3.97;;
12878;SDS011;20617;49.476;10.986;2024-02-21T05:13:27;8.20;;;3.20;;
12878;SDS011;20617;49.476;10.986;2024-02-21T05:15:28;16.10;;;3.38;;
12878;SDS011;20617;49.476;10.986;2024-02-21T05:17:28;9.65;;;3.55;;
12878;SDS011;20617;49.476;10.986;2024-02-21T05:19:29;14.35;;;4.05;;
12878;SDS011;20617;49.476;10.986;2024-02-21T05:21:33;8.95;;;3.05;;
12878;SDS011;20617;49.476;10.986;2024-02-21T05:23:33;8.48;;;3.47;;
12878;SDS011;20617;49.476;10.986;2024-02-21T05:25:34;8.63;;;3.13;;
12878;SDS011;20617;49.476;10.986;2024-02-21T05:27:35;12.10;;;4.03;;
12878;SDS011;20617;49.476;10.986;2024-02-21T05:29:35;9.02;;;3.38;;
12878;SDS011;20617;49.476;10.986;2024-02-21T05:31:43;10.75;;;3.78;;
12878;SDS011;20617;49.476;10.986;2024-02-21T05:33:55;11.02;;;3.78;;
12878;SDS011;20617;49.476;10.986;2024-02-21T05:35:56;13.32;;;4.10;;
12878;SDS011;20617;49.476;10.986;2024-02-21T05:37:59;9.20;;;3.80;;
12878;SDS011;20617;49.476;10.986;2024-02-21T05:40:00;8.07;;;3.30;;
12878;SDS011;20617;49.476;10.986;2024-02-21T05:42:01;11.82;;;3.92;;
12878;SDS011;20617;49.476;10.986;2024-02-21T05:44:02;13.70;;;3.75;;
12878;SDS011;20617;49.476;10.986;2024-02-21T05:46:03;12.77;;;3.38;;
12878;SDS011;20617;49.476;10.986;2024-02-21T05:48:04;12.70;;;3.53;;
12878;SDS011;20617;49.476;10.986;2024-02-21T05:50:06;10.43;;;3.42;;
12878;SDS011;20617;49.476;10.986;2024-02-21T05:52:06;11.98;;;3.88;;
12878;SDS011;20617;49.476;10.986;2024-02-21T05:54:10;11.75;;;3.95;;
12878;SDS011;20617;49.476;10.986;2024-02-21T05:56:10;8.70;;;3.38;;
12878;SDS011;20617;49.476;10.986;2024-02-21T05:58:11;9.07;;;3.58;;
12878;SDS011;20617;49.476;10.986;2024-02-21T06:00:13;10.45;;;4.10;;
12878;SDS011;20617;49.476;10.986;2024-02-21T06:02:14;9.02;;;3.15;;
12878;SDS011;20617;49.476;10.986;2024-02-21T06:04:15;11.82;;;4.13;;
12878;SDS011;20617;49.476;10.986;2024-02-21T06:06:15;9.48;;;3.30;;
12878;SDS011;20617;49.476;10.986;2024-02-21T06:08:16;11.02;;;3.88;;
12878;SDS011;20617;49.476;10.986;2024-02-21T06:10:20;10.32;;;4.00;;
12878;SDS011;20617;49.476;10.986;2024-02-21T06:12:21;13.87;;;3.80;;
12878;SDS011;20617;49.476;10.986;2024-02-21T06:14:22;12.75;;;3.72;;
12878;SDS011;20617;49.476;10.986;2024-02-21T06:16:22;10.48;;;3.85;;
12878;SDS011;20617;49.476;10.986;2024-02-21T06:18:23;13.18;;;3.95;;
12878;SDS011;20617;49.476;10.986;2024-02-21T06:20:24;13.93;;;4.53;;
12878;SDS011;20617;49.476;10.986;2024-02-21T06:22:25;10.00;;;3.92;;
12878;SDS011;20617;49.476;10.986;2024-02-21T06:24:25;10.55;;;3.45;;
12878;SDS011;20617;49.476;10.986;2024-02-21T06:26:35;13.25;;;4.72;;
12878;SDS011;20617;49.476;10.986;2024-02-21T06:28:35;8.82;;;3.55;;
12878;SDS011;20617;49.476;10.986;2024-02-21T06:30:36;10.95;;;4.07;;
12878;SDS011;20617;49.476;10.986;2024-02-21T06:32:37;9.95;;;3.25;;
12878;SDS011;20617;49.476;10.986;2024-02-21T06:34:37;9.65;;;3.72;;
12878;SDS011;20617;49.476;10.986;2024-02-21T06:36:38;9.52;;;3.40;;
12878;SDS011;20617;49.476;10.986;2024-02-21T06:38:39;11.32;;;3.45;;
12878;SDS011;20617;49.476;10.986;2024-02-21T06:40:39;10.52;;;3.40;;
12878;SDS011;20617;49.476;10.986;2024-02-21T06:42:43;9.85;;;3.38;;
12878;SDS011;20617;49.476;10.986;2024-02-21T06:44:43;9.70;;;3.55;;
12878;SDS011;20617;49.476;10.986;2024-02-21T06:46:45;8.48;;;3.22;;
12878;SDS011;20617;49.476;10.986;2024-02-21T06:48:45;13.38;;;3.67;;
12878;SDS011;20617;49.476;10.986;2024-02-21T06:50:46;7.10;;;3.47;;
12878;SDS011;20617;49.476;10.986;2024-02-21T06:52:47;11.35;;;4.22;;
12878;SDS011;20617;49.476;10.986;2024-02-21T06:54:47;10.52;;;3.30;;
12878;SDS011;20617;49.476;10.986;2024-02-21T06:56:48;12.75;;;4.20;;
12878;SDS011;20617;49.476;10.986;2024-02-21T06:58:52;9.13;;;3.92;;
12878;SDS011;20617;49.476;10.986;2024-02-21T07:00:52;8.98;;;4.05;;
12878;SDS011;20617;49.476;10.986;2024-02-21T07:02:53;10.18;;;3.55;;
12878;SDS011;20617;49.476;10.986;2024-02-21T07:04:53;11.88;;;3.50;;
12878;SDS011;20617;49.476;10.986;2024-02-21T07:06:54;11.30;;;3.75;;
12878;SDS011;20617;49.476;10.986;2024-02-21T07:08:55;12.35;;;4.78;;
12878;SDS011;20617;49.476;10.986;2024-02-21T07:10:56;9.20;;;3.22;;
12878;SDS011;20617;49.476;10.986;2024-02-21T07:12:56;10.57;;;4.10;;
12878;SDS011;20617;49.476;10.986;2024-02-21T07:15:00;12.27;;;3.22;;
12878;SDS011;20617;49.476;10.986;2024-02-21T07:17:00;8.23;;;3.38;;
12878;SDS011;20617;49.476;10.986;2024-02-21T07:19:02;11.48;;;3.92;;
12878;SDS011;20617;49.476;10.986;2024-02-21T07:21:03;13.52;;;3.83;;
12878;SDS011;20617;49.476;10.986;2024-02-21T07:23:04;14.38;;;3.65;;
12878;SDS011;20617;49.476;10.986;2024-02-21T07:25:05;12.73;;;4.13;;
12878;SDS011;20617;49.476;10.986;2024-02-21T07:27:06;11.57;;;3.88;;
12878;SDS011;20617;49.476;10.986;2024-02-21T07:29:07;14.52;;;3.88;;
12878;SDS011;20617;49.476;10.986;2024-02-21T07:31:10;10.52;;;3.03;;
12878;SDS011;20617;49.476;10.986;2024-02-21T07:33:11;16.95;;;3.92;;
12878;SDS011;20617;49.476;10.986;2024-02-21T07:35:12;9.27;;;3.33;;
12878;SDS011;20617;49.476;10.986;2024-02-21T07:37:12;9.43;;;3.25;;
12878;SDS011;20617;49.476;10.986;2024-02-21T07:39:13;9.18;;;3.47;;
12878;SDS011;20617;49.476;10.986;2024-02-21T07:41:14;12.18;;;3.58;;
12878;SDS011;20617;49.476;10.986;2024-02-21T07:43:15;8.13;;;3.17;;
12878;SDS011;20617;49.476;10.986;2024-02-21T07:45:15;10.27;;;3.30;;
12878;SDS011;20617;49.476;10.986;2024-02-21T07:47:19;13.85;;;3.97;;
12878;SDS011;20617;49.476;10.986;2024-02-21T07:49:19;16.45;;;4.03;;
12878;SDS011;20617;49.476;10.986;2024-02-21T07:51:20;10.88;;;3.17;;
12878;SDS011;20617;49.476;10.986;2024-02-21T07:53:21;11.02;;;3.40;;
12878;SDS011;20617;49.476;10.986;2024-02-21T07:55:22;10.82;;;3.10;;
12878;SDS011;20617;49.476;10.986;2024-02-21T07:57:22;9.13;;;3.08;;
12878;SDS011;20617;49.476;10.986;2024-02-21T07:59:23;9.27;;;3.05;;
12878;SDS011;20617;49.476;10.986;2024-02-21T08:01:24;8.10;;;2.88;;
12878;SDS011;20617;49.476;10.986;2024-02-21T08:03:27;8.90;;;2.80;;
12878;SDS011;20617;49.476;10.986;2024-02-21T08:05:28;10.48;;;2.80;;
12878;SDS011;20617;49.476;10.986;2024-02-21T08:07:29;10.15;;;2.75;;
12878;SDS011;20617;49.476;10.986;2024-02-21T08:09:30;12.52;;;3.13;;
12878;SDS011;20617;49.476;10.986;2024-02-21T08:11:30;9.75;;;3.40;;
12878;SDS011;20617;49.476;10.986;2024-02-21T08:13:31;7.57;;;2.75;;
12878;SDS011;20617;49.476;10.986;2024-02-21T08:15:32;9.98;;;3.45;;
12878;SDS011;20617;49.476;10.986;2024-02-21T08:17:32;8.73;;;3.25;;
12878;SDS011;20617;49.476;10.986;2024-02-21T08:19:36;6.63;;;2.80;;
12878;SDS011;20617;49.476;10.986;2024-02-21T08:21:37;8.52;;;3.28;;
12878;SDS011;20617;49.476;10.986;2024-02-21T08:23:37;12.85;;;3.85;;
12878;SDS011;20617;49.476;10.986;2024-02-21T08:25:38;14.77;;;3.08;;
12878;SDS011;20617;49.476;10.986;2024-02-21T08:27:39;7.13;;;2.50;;
12878;SDS011;20617;49.476;10.986;2024-02-21T08:29:40;10.10;;;3.30;;
12878;SDS011;20617;49.476;10.986;2024-02-21T08:31:40;10.13;;;3.15;;
12878;SDS011;20617;49.476;10.986;2024-02-21T08:33:44;8.25;;;3.08;;
12878;SDS011;20617;49.476;10.986;2024-02-21T08:35:47;11.65;;;3.20;;
12878;SDS011;20617;49.476;10.986;2024-02-21T08:37:48;9.95;;;3.03;;
12878;SDS011;20617;49.476;10.986;2024-02-21T08:39:48;8.60;;;2.85;;
12878;SDS011;20617;49.476;10.986;2024-02-21T08:41:49;9.00;;;3.10;;
12878;SDS011;20617;49.476;10.986;2024-02-21T08:43:50;13.52;;;3.55;;
12878;SDS011;20617;49.476;10.986;2024-02-21T08:45:50;11.68;;;2.90;;
12878;SDS011;20617;49.476;10.986;2024-02-21T08:47:51;11.20;;;3.00;;
12878;SDS011;20617;49.476;10.986;2024-02-21T08:49:52;9.88;;;2.83;;
12878;SDS011;20617;49.476;10.986;2024-02-21T08:51:55;10.52;;;3.20;;
12878;SDS011;20617;49.476;10.986;2024-02-21T08:53:56;11.60;;;3.17;;
12878;SDS011;20617;49.476;10.986;2024-02-21T08:55:57;9.23;;;3.08;;
12878;SDS011;20617;49.476;10.986;2024-02-21T08:57:58;7.30;;;2.47;;
12878;SDS011;20617;49.476;10.986;2024-02-21T09:00:00;13.60;;;3.47;;
12878;SDS011;20617;49.476;10.986;2024-02-21T09:02:01;9.68;;;2.50;;
12878;SDS011;20617;49.476;10.986;2024-02-21T09:04:01;11.07;;;3.20;;
12878;SDS011;20617;49.476;10.986;2024-02-21T09:06:03;12.00;;;3.00;;
12878;SDS011;20617;49.476;10.986;2024-02-21T09:08:08;8.52;;;2.40;;
12878;SDS011;20617;49.476;10.986;2024-02-21T09:10:09;9.48;;;2.40;;
12878;SDS011;20617;49.476;10.986;2024-02-21T09:12:10;8.45;;;3.40;;
12878;SDS011;20617;49.476;10.986;2024-02-21T09:14:10;7.75;;;3.42;;
12878;SDS011;20617;49.476;10.986;2024-02-21T09:16:11;9.38;;;3.05;;
12878;SDS011;20617;49.476;10.986;2024-02-21T09:18:12;11.38;;;3.25;;
12878;SDS011;20617;49.476;10.986;2024-02-21T09:20:12;7.30;;;2.13;;
12878;SDS011;20617;49.476;10.986;2024-02-21T09:22:13;12.20;;;3.05;;
12878;SDS011;20617;49.476;10.986;2024-02-21T09:24:17;11.52;;;2.75;;
12878;SDS011;20617;49.476;10.986;2024-02-21T09:26:18;6.97;;;2.50;;
12878;SDS011;20617;49.476;10.986;2024-02-21T09:28:19;5.40;;;2.15;;
12878;SDS011;20617;49.476;10.986;2024-02-21T09:30:19;9.50;;;2.67;;
12878;SDS011;20617;49.476;10.986;2024-02-21T09:32:20;6.85;;;2.60;;
12878;SDS011;20617;49.476;10.986;2024-02-21T09:34:21;8.57;;;2.90;;
12878;SDS011;20617;49.476;10.986;2024-02-21T09:36:21;9.23;;;2.92;;
12878;SDS011;20617;49.476;10.986;2024-02-21T09:38:24;9.30;;;2.83;;
12878;SDS011;20617;49.476;10.986;2024-02-21T09:40:28;9.32;;;2.55;;
12878;SDS011;20617;49.476;10.986;2024-02-21T09:42:31;9.95;;;3.00;;
12878;SDS011;20617;49.476;10.986;2024-02-21T09:44:38;6.40;;;2.03;;
12878;SDS011;20617;49.476;10.986;2024-02-21T09:46:40;9.57;;;2.70;;
12878;SDS011;20617;49.476;10.986;2024-02-21T09:48:58;5.22;;;2.00;;
12878;SDS011;20617;49.476;10.986;2024-02-21T09:51:04;9.50;;;2.90;;
12878;SDS011;20617;49.476;10.986;2024-02-21T09:53:07;10.93;;;2.85;;
12878;SDS011;20617;49.476;10.986;2024-02-21T09:55:09;9.90;;;2.78;;
12878;SDS011;20617;49.476;10.986;2024-02-21T09:57:13;8.23;;;2.50;;
12878;SDS011;20617;49.476;10.986;2024-02-21T09:59:15;9.85;;;2.45;;
12878;SDS011;20617;49.476;10.986;2024-02-21T10:01:16;10.63;;;2.65;;
12878;SDS011;20617;49.476;10.986;2024-02-21T10:03:17;9.70;;;3.20;;
12878;SDS011;20617;49.476;10.986;2024-02-21T10:05:18;5.70;;;2.10;;
12878;SDS011;20617;49.476;10.986;2024-02-21T10:07:19;7.32;;;2.40;;
12878;SDS011;20617;49.476;10.986;2024-02-21T10:09:21;7.95;;;2.42;;
12878;SDS011;20617;49.476;10.986;2024-02-21T10:11:25;8.27;;;2.75;;
12878;SDS011;20617;49.476;10.986;2024-02-21T10:13:29;7.70;;;2.70;;
12878;SDS011;20617;49.476;10.986;2024-02-21T10:15:30;8.13;;;2.70;;
12878;SDS011;20617;49.476;10.986;2024-02-21T10:17:31;9.10;;;3.28;;
12878;SDS011;20617;49.476;10.986;2024-02-21T10:19:32;7.03;;;2.38;;
12878;SDS011;20617;49.476;10.986;2024-02-21T10:21:33;9.20;;;2.58;;
12878;SDS011;20617;49.476;10.986;2024-02-21T10:23:43;11.82;;;3.17;;
12878;SDS011;20617;49.476;10.986;2024-02-21T10:25:45;9.98;;;3.00;;
12878;SDS011;20617;49.476;10.986;2024-02-21T10:27:45;6.60;;;2.47;;
12878;SDS011;20617;49.476;10.986;2024-02-21T10:29:51;6.55;;;2.25;;
12878;SDS011;20617;49.476;10.986;2024-02-21T10:31:52;7.07;;;2.22;;
12878;SDS011;20617;49.476;10.986;2024-02-21T10:34:03;7.05;;;2.20;;
12878;SDS011;20617;49.476;10.986;2024-02-21T10:36:07;10.48;;;2.58;;
12878;SDS011;20617;49.476;10.986;2024-02-21T10:38:08;8.20;;;2.45;;
12878;SDS011;20617;49.476;10.986;2024-02-21T10:40:09;8.07;;;2.83;;
12878;SDS011;20617;49.476;10.986;2024-02-21T10:42:11;8.32;;;2.50;;
12878;SDS011;20617;49.476;10.986;2024-02-21T10:44:12;6.60;;;2.20;;
12878;SDS011;20617;49.476;10.986;2024-02-21T10:46:18;7.53;;;2.60;;
12878;SDS011;20617;49.476;10.986;2024-02-21T10:48:25;5.60;;;2.22;;
12878;SDS011;20617;49.476;10.986;2024-02-21T10:50:32;8.70;;;2.58;;
12878;SDS011;20617;49.476;10.986;2024-02-21T10:55:03;7.30;;;2.53;;
12878;SDS011;20617;49.476;10.986;2024-02-21T10:57:04;10.20;;;2.35;;
12878;SDS011;20617;49.476;10.986;2024-02-21T10:59:07;8.27;;;2.55;;
12878;SDS011;20617;49.476;10.986;2024-02-21T11:01:08;6.40;;;2.30;;
12878;SDS011;20617;49.476;10.986;2024-02-21T11:03:12;7.88;;;2.55;;
12878;SDS011;20617;49.476;10.986;2024-02-21T11:05:13;8.38;;;2.30;;
12878;SDS011;20617;49.476;10.986;2024-02-21T11:07:15;5.25;;;1.98;;
12878;SDS011;20617;49.476;10.986;2024-02-21T11:09:16;7.35;;;2.50;;
12878;SDS011;20617;49.476;10.986;2024-02-21T11:11:17;5.38;;;1.95;;
12878;SDS011;20617;49.476;10.986;2024-02-21T11:13:18;7.38;;;2.53;;
12878;SDS011;20617;49.476;10.986;2024-02-21T11:15:29;8.80;;;2.58;;
12878;SDS011;20617;49.476;10.986;2024-02-21T11:17:30;8.45;;;2.42;;
12878;SDS011;20617;49.476;10.986;2024-02-21T11:19:34;6.88;;;2.15;;
12878;SDS011;20617;49.476;10.986;2024-02-21T11:21:35;7.47;;;2.38;;
12878;SDS011;20617;49.476;10.986;2024-02-21T11:23:36;6.57;;;2.63;;
12878;SDS011;20617;49.476;10.986;2024-02-21T11:25:36;7.20;;;2.10;;
12878;SDS011;20617;49.476;10.986;2024-02-21T11:27:37;7.57;;;2.20;;
12878;SDS011;20617;49.476;10.986;2024-02-21T11:29:42;8.00;;;2.50;;
12878;SDS011;20617;49.476;10.986;2024-02-21T11:31:44;9.52;;;2.58;;
12878;SDS011;20617;49.476;10.986;2024-02-21T11:33:45;6.95;;;2.10;;
12878;SDS011;20617;49.476;10.986;2024-02-21T11:35:50;7.43;;;2.22;;
12878;SDS011;20617;49.476;10.986;2024-02-21T11:37:51;7.75;;;2.67;;
12878;SDS011;20617;49.476;10.986;2024-02-21T11:39:52;6.22;;;2.30;;
12878;SDS011;20617;49.476;10.986;2024-02-21T11:42:02;5.75;;;2.33;;
12878;SDS011;20617;49.476;10.986;2024-02-21T11:44:04;6.43;;;2.05;;
12878;SDS011;20617;49.476;10.986;2024-02-21T11:46:04;7.85;;;2.20;;
12878;SDS011;20617;49.476;10.986;2024-02-21T11:48:05;7.28;;;2.00;;
12878;SDS011;20617;49.476;10.986;2024-02-21T11:50:09;4.60;;;1.95;;
12878;SDS011;20617;49.476;10.986;2024-02-21T11:52:13;7.57;;;2.55;;
12878;SDS011;20617;49.476;10.986;2024-02-21T11:54:15;5.85;;;2.20;;
12878;SDS011;20617;49.476;10.986;2024-02-21T11:56:16;5.78;;;2.08;;
12878;SDS011;20617;49.476;10.986;2024-02-21T11:58:18;7.85;;;2.00;;
12878;SDS011;20617;49.476;10.986;2024-02-21T12:00:19;7.47;;;1.77;;
12878;SDS011;20617;49.476;10.986;2024-02-21T12:02:20;7.57;;;1.75;;
12878;SDS011;20617;49.476;10.986;2024-02-21T12:04:21;10.23;;;2.20;;